Time;durP1;ratioP1;P1;durP2;ratioP2;P2;SDS_P1;SDS_P2;PMS_P1;PMS_P2;Temp;Humidity;BMP_temperature;BMP_pressure;BME280_temperature;BME280_humidity;BME280_pressure;Samples;Min_cycle;Max_cycle;Signal;HPM_P1;HPM_P2
2023/05/20 00:00:00;;;;;;;;;8.00;8.00;;;;;11.18;53.61;100577.69;5118209;28;8839;-59
2023/05/20 00:02:28;;;;;;;;;8.00;8.00;;;;;11.16;53.22;100579.59;5117384;28;8836;-60
2023/05/20 00:04:56;;;;;;;;;6.75;6.50;;;;;11.14;53.33;100573.53;5117489;28;8839;-60
2023/05/20 00:07:23;;;;;;;;;10.00;9.00;;;;;11.13;53.46;100574.50;5117618;28;8827;-60
2023/05/20 00:09:51;;;;;;;;;7.00;7.00;;;;;11.13;53.59;100570.94;5117434;28;8962;-60
2023/05/20 00:12:19;;;;;;;;;6.50;6.00;;;;;11.14;53.56;100565.53;5117439;28;8950;-58
2023/05/20 00:14:47;;;;;;;;;6.00;4.50;;;;;11.19;53.48;100567.84;5117629;28;8815;-58
2023/05/20 00:17:14;;;;;;;;;3.00;3.00;;;;;11.19;53.86;100574.06;5117320;28;8857;-58
2023/05/20 00:19:42;;;;;;;;;6.00;6.00;;;;;11.14;53.58;100568.19;5117580;28;8971;-58
2023/05/20 00:22:11;;;;;;;;;8.50;6.00;;;;;11.09;53.61;100577.47;5117309;28;8836;-57
2023/05/20 00:24:39;;;;;;;;;5.50;5.50;;;;;11.05;53.74;100568.00;5117450;28;8946;-58
2023/05/20 00:27:06;;;;;;;;;6.00;6.00;;;;;11.01;53.53;100575.34;5117380;28;8812;-58
2023/05/20 00:29:34;;;;;;;;;6.00;6.00;;;;;10.98;53.98;100570.25;5117327;28;8832;-58
2023/05/20 00:32:02;;;;;;;;;6.50;6.00;;;;;10.97;54.06;100579.22;5117494;28;8944;-58
2023/05/20 00:34:30;;;;;;;;;4.50;4.50;;;;;10.95;53.84;100580.28;5117687;28;8945;-58
2023/05/20 00:36:58;;;;;;;;;6.00;6.00;;;;;10.90;53.94;100577.94;5116987;28;8828;-58
2023/05/20 00:39:26;;;;;;;;;7.50;7.50;;;;;10.87;54.06;100572.84;5117487;28;8834;-58
2023/05/20 00:41:53;;;;;;;;;6.50;6.25;;;;;10.84;53.91;100574.88;5117056;28;8820;-58
2023/05/20 00:44:25;;;;;;;;;8.00;6.50;;;;;10.81;54.12;100567.06;5117311;28;9706;-57
2023/05/20 00:46:53;;;;;;;;;8.00;7.00;;;;;10.77;54.24;100577.09;5117611;28;8828;-59
2023/05/20 00:49:22;;;;;;;;;8.50;8.50;;;;;10.75;54.19;100563.03;5116915;28;8858;-57
2023/05/20 00:51:50;;;;;;;;;7.50;7.50;;;;;10.73;54.49;100562.31;5117212;28;8839;-57
2023/05/20 00:54:17;;;;;;;;;7.50;7.50;;;;;10.71;54.44;100568.69;5116931;28;8863;-57
2023/05/20 00:56:45;;;;;;;;;7.00;6.00;;;;;10.70;54.74;100574.97;5117088;28;8930;-59
2023/05/20 00:59:13;;;;;;;;;6.00;6.00;;;;;10.68;54.56;100561.75;5117220;28;8950;-57
2023/05/20 01:01:41;;;;;;;;;5.50;5.50;;;;;10.70;54.31;100559.84;5116834;28;8881;-58
2023/05/20 01:04:09;;;;;;;;;7.00;7.00;;;;;10.72;54.64;100567.72;5117013;28;8852;-59
2023/05/20 01:06:36;;;;;;;;;7.50;6.25;;;;;10.74;54.48;100560.47;5116682;28;8840;-58
2023/05/20 01:09:04;;;;;;;;;6.00;6.00;;;;;10.75;54.65;100556.84;5116807;28;8966;-58
2023/05/20 01:11:32;;;;;;;;;8.50;8.50;;;;;10.74;54.65;100558.69;5116790;28;8824;-58
2023/05/20 01:14:00;;;;;;;;;6.75;6.75;;;;;10.73;54.17;100554.31;5116901;28;8828;-58
2023/05/20 01:16:28;;;;;;;;;5.25;4.00;;;;;10.72;54.50;100557.06;5116972;28;8951;-60
2023/05/20 01:18:56;;;;;;;;;6.75;6.75;;;;;10.71;54.36;100560.69;5116534;28;8844;-59
2023/05/20 01:21:24;;;;;;;;;6.00;6.00;;;;;10.70;54.51;100559.00;5115824;28;8853;-58
2023/05/20 01:23:51;;;;;;;;;4.00;4.00;;;;;10.68;54.64;100560.91;5116591;28;8832;-58
2023/05/20 01:26:20;;;;;;;;;5.50;5.50;;;;;10.67;54.84;100549.41;5116784;28;8855;-57
2023/05/20 01:28:49;;;;;;;;;4.00;3.50;;;;;10.65;54.78;100548.66;5117031;28;8847;-57
2023/05/20 01:31:17;;;;;;;;;4.00;4.00;;;;;10.66;54.22;100545.03;5116472;28;8896;-58
2023/05/20 01:33:45;;;;;;;;;6.00;6.00;;;;;10.67;54.53;100552.06;5116780;28;8933;-58
2023/05/20 01:36:13;;;;;;;;;6.75;6.00;;;;;10.65;54.55;100546.00;5116608;28;8844;-57
2023/05/20 01:38:40;;;;;;;;;6.00;6.00;;;;;10.66;54.97;100545.03;5116298;28;8843;-58
2023/05/20 01:41:08;;;;;;;;;6.00;4.00;;;;;10.65;54.72;100545.16;5116428;28;8836;-57
2023/05/20 01:43:36;;;;;;;;;6.00;5.00;;;;;10.64;54.75;100535.44;5116799;28;8828;-57
2023/05/20 01:46:04;;;;;;;;;6.00;5.00;;;;;10.62;54.51;100535.56;5116316;28;8816;-58
2023/05/20 01:48:32;;;;;;;;;4.00;3.50;;;;;10.61;54.77;100531.19;5116521;28;8901;-57
2023/05/20 01:51:00;;;;;;;;;6.00;6.00;;;;;10.61;54.54;100530.34;5116473;28;8830;-57
2023/05/20 01:53:28;;;;;;;;;6.00;6.00;;;;;10.60;54.95;100529.50;5116223;28;8938;-58
2023/05/20 01:55:55;;;;;;;;;6.00;6.00;;;;;10.58;54.81;100526.09;5116371;28;8950;-57
2023/05/20 01:58:23;;;;;;;;;4.00;4.00;;;;;10.60;54.92;100524.16;5115412;28;8970;-57
2023/05/20 02:00:51;;;;;;;;;5.00;4.00;;;;;10.61;54.27;100520.53;5116354;28;8863;-57
2023/05/20 02:03:19;;;;;;;;;5.50;4.00;;;;;10.63;55.10;100521.28;5115972;28;8840;-58
2023/05/20 02:05:46;;;;;;;;;8.50;8.00;;;;;10.60;54.98;100521.50;5116130;28;8836;-58
2023/05/20 02:08:14;;;;;;;;;6.00;6.00;;;;;10.59;55.01;100521.59;5114703;28;8840;-57
2023/05/20 02:10:42;;;;;;;;;8.00;7.50;;;;;10.56;55.34;100527.16;5115047;28;8958;-58
2023/05/20 02:13:10;;;;;;;;;7.50;7.50;;;;;10.52;55.21;100523.84;5114720;28;8827;-57
2023/05/20 02:15:37;;;;;;;;;3.50;3.00;;;;;10.49;54.74;100534.72;5115180;28;8838;-58
2023/05/20 02:18:07;;;;;;;;;6.50;6.50;;;;;10.45;55.47;100527.91;5115374;28;8883;-57
2023/05/20 02:20:35;;;;;;;;;6.00;4.50;;;;;10.42;55.14;100533.44;5115655;28;8983;-57
2023/05/20 02:23:04;;;;;;;;;4.00;4.00;;;;;10.38;55.31;100536.41;5116167;28;8824;-60
2023/05/20 02:25:32;;;;;;;;;6.25;6.25;;;;;10.34;55.40;100534.94;5116416;28;9515;-58
2023/05/20 02:28:04;;;;;;;;;6.00;6.00;;;;;10.29;55.73;100532.59;5116023;28;8855;-58
2023/05/20 02:30:32;;;;;;;;;9.00;7.25;;;;;10.25;55.65;100540.91;5115920;28;8823;-57
2023/05/20 02:32:59;;;;;;;;;6.75;6.75;;;;;10.22;55.59;100541.94;5116586;28;8824;-59
2023/05/20 02:35:27;;;;;;;;;14.75;12.00;;;;;10.18;55.45;100543.09;5119900;28;8852;-58
2023/05/20 02:37:55;;;;;;;;;9.25;9.00;;;;;10.16;55.83;100538.88;5119948;28;8962;-57
2023/05/20 02:40:23;;;;;;;;;15.50;15.00;;;;;10.14;55.93;100538.09;5119365;28;8901;-59
2023/05/20 02:42:50;;;;;;;;;14.25;12.00;;;;;10.14;55.82;100543.41;5119217;28;8848;-57
2023/05/20 02:45:18;;;;;;;;;12.50;11.50;;;;;10.13;55.59;100542.59;5119506;28;8820;-59
2023/05/20 02:47:46;;;;;;;;;7.50;6.75;;;;;10.12;56.10;100540.03;5118948;28;8824;-57
2023/05/20 02:50:14;;;;;;;;;7.00;7.00;;;;;10.11;56.27;100541.81;5119288;28;8843;-60
2023/05/20 02:52:42;;;;;;;;;10.75;10.50;;;;;10.12;55.73;100540.88;5118812;28;9048;-59
2023/05/20 02:55:10;;;;;;;;;10.00;9.25;;;;;10.11;55.96;100536.50;5119288;28;9574;-58
2023/05/20 02:57:38;;;;;;;;;9.50;9.00;;;;;10.11;55.83;100539.16;5118972;28;9497;-59
2023/05/20 03:00:06;;;;;;;;;9.00;9.00;;;;;10.10;56.05;100537.44;5118773;28;8827;-60
2023/05/20 03:02:34;;;;;;;;;7.50;6.50;;;;;10.09;55.83;100538.41;5119269;28;8946;-57
2023/05/20 03:05:02;;;;;;;;;7.50;6.75;;;;;10.08;56.09;100528.72;5118867;28;8867;-59
2023/05/20 03:07:30;;;;;;;;;6.75;6.75;;;;;10.08;56.19;100527.91;5118617;28;8969;-59
2023/05/20 03:09:58;;;;;;;;;8.50;8.50;;;;;10.08;56.36;100527.91;5119064;28;8835;-58
2023/05/20 03:12:26;;;;;;;;;6.50;6.50;;;;;10.09;56.50;100525.09;5119106;28;8836;-60
2023/05/20 03:14:54;;;;;;;;;5.50;4.00;;;;;10.09;55.86;100527.78;5119206;28;8828;-57
2023/05/20 03:17:22;;;;;;;;;1.00;1.00;;;;;10.13;56.12;100531.94;5118840;28;8859;-60
2023/05/20 03:19:50;;;;;;;;;3.00;3.00;;;;;10.15;56.22;100543.31;5118713;28;8839;-59
2023/05/20 03:22:17;;;;;;;;;6.50;6.00;;;;;10.14;55.99;100533.66;5118741;28;8834;-60
2023/05/20 03:24:45;;;;;;;;;11.25;9.00;;;;;10.10;56.15;100532.13;5118846;28;8897;-59
2023/05/20 03:27:13;;;;;;;;;8.50;8.50;;;;;10.07;56.04;100529.69;5119045;28;8962;-62
2023/05/20 03:29:41;;;;;;;;;8.00;7.50;;;;;10.03;56.27;100530.84;5118567;28;8854;-62
2023/05/20 03:32:08;;;;;;;;;9.00;8.50;;;;;9.99;56.68;100531.13;5119041;28;8820;-62
2023/05/20 03:34:37;;;;;;;;;5.00;5.00;;;;;9.95;56.53;100530.47;5118636;28;8865;-59
2023/05/20 03:37:05;;;;;;;;;6.75;6.75;;;;;9.93;56.85;100528.91;5118433;28;9651;-59
2023/05/20 03:39:33;;;;;;;;;9.50;8.00;;;;;9.90;57.02;100524.63;5118437;28;8843;-57
2023/05/20 03:42:01;;;;;;;;;6.50;6.25;;;;;9.90;56.94;100523.78;5118064;28;8844;-59
2023/05/20 03:44:28;;;;;;;;;6.75;6.75;;;;;9.89;56.77;100522.94;5117711;28;8839;-60
2023/05/20 03:46:56;;;;;;;;;10.75;9.00;;;;;9.89;56.62;100524.72;5118316;28;8930;-60
2023/05/20 03:49:24;;;;;;;;;7.75;6.50;;;;;9.88;56.99;100526.53;5117756;28;8827;-59
2023/05/20 03:51:52;;;;;;;;;8.00;8.00;;;;;9.88;56.63;100531.00;5118390;28;8938;-60
2023/05/20 03:54:20;;;;;;;;;6.00;6.00;;;;;9.86;56.85;100523.13;5118064;28;8946;-59
2023/05/20 03:56:48;;;;;;;;;8.00;7.00;;;;;9.86;56.89;100523.13;5117978;28;8827;-60
2023/05/20 03:59:16;;;;;;;;;5.50;5.50;;;;;9.87;56.50;100522.16;5118055;28;8824;-59
2023/05/20 04:01:45;;;;;;;;;6.50;6.50;;;;;9.90;56.83;100519.31;5117686;28;8824;-58
2023/05/20 04:04:13;;;;;;;;;4.00;3.00;;;;;9.98;57.05;100519.66;5117707;28;8848;-58
2023/05/20 04:06:42;;;;;;;;;6.50;6.00;;;;;10.07;56.50;100508.41;5117611;28;8916;-59
2023/05/20 04:09:09;;;;;;;;;8.00;8.00;;;;;10.17;56.96;100513.97;5117733;28;8816;-59
2023/05/20 04:11:37;;;;;;;;;6.25;6.00;;;;;10.22;56.20;100514.47;5117219;28;8888;-58
2023/05/20 04:14:05;;;;;;;;;6.00;6.00;;;;;10.25;56.20;100514.28;5117429;28;8827;-58
2023/05/20 04:16:33;;;;;;;;;6.25;6.00;;;;;10.27;56.31;100517.69;5117555;28;9481;-60
2023/05/20 04:19:01;;;;;;;;;7.00;7.00;;;;;10.34;56.31;100524.28;5117244;28;8846;-60
2023/05/20 04:21:30;;;;;;;;;8.00;6.50;;;;;10.42;56.16;100516.63;5117520;28;8843;-62
2023/05/20 04:23:58;;;;;;;;;4.50;4.50;;;;;10.50;56.49;100503.63;5117574;28;8830;-62
2023/05/20 04:26:26;;;;;;;;;6.00;6.00;;;;;10.63;56.29;100509.78;5117467;28;8812;-59
2023/05/20 04:28:54;;;;;;;;;6.00;5.50;;;;;10.74;55.98;100505.41;5118081;28;8812;-59
2023/05/20 04:31:25;;;;;;;;;7.00;7.00;;;;;10.80;55.49;100502.31;5117451;28;8959;-60
2023/05/20 04:33:53;;;;;;;;;8.00;7.00;;;;;10.90;55.82;100499.81;5117558;28;8840;-62
2023/05/20 04:36:21;;;;;;;;;5.00;5.00;;;;;11.00;55.65;100501.69;5117242;28;8823;-62
2023/05/20 04:38:49;;;;;;;;;6.00;6.00;;;;;11.09;55.75;100498.34;5117518;28;8832;-60
2023/05/20 04:41:17;;;;;;;;;7.00;6.50;;;;;11.19;55.78;100494.09;5117365;28;8848;-60
2023/05/20 04:43:45;;;;;;;;;6.00;6.00;;;;;11.27;55.90;100498.84;5117797;28;8850;-62
2023/05/20 04:46:12;;;;;;;;;5.00;5.00;;;;;11.33;55.63;100498.38;5117240;28;8823;-61
2023/05/20 04:48:40;;;;;;;;;6.00;6.00;;;;;11.39;55.72;100489.94;5117010;28;8831;-62
2023/05/20 04:51:08;;;;;;;;;6.75;6.75;;;;;11.46;55.21;100497.34;5117621;28;9723;-62
2023/05/20 04:53:36;;;;;;;;;7.00;6.00;;;;;11.55;55.40;100491.38;5117231;28;8958;-60
2023/05/20 04:56:04;;;;;;;;;9.25;9.00;;;;;11.66;55.21;100494.09;5116844;28;8974;-60
2023/05/20 04:58:32;;;;;;;;;7.00;7.00;;;;;11.78;55.50;100503.84;5117261;28;8823;-59
2023/05/20 05:01:00;;;;;;;;;9.00;7.25;;;;;11.88;55.37;100504.84;5116910;28;8820;-60
2023/05/20 05:03:28;;;;;;;;;7.00;7.00;;;;;11.99;55.47;100500.41;5116895;28;8925;-60
2023/05/20 05:05:55;;;;;;;;;6.75;6.50;;;;;12.11;54.91;100503.94;5117052;28;8974;-60
2023/05/20 05:08:23;;;;;;;;;8.50;6.75;;;;;12.22;54.49;100503.94;5116791;28;8840;-59
2023/05/20 05:10:51;;;;;;;;;6.00;6.00;;;;;12.28;54.97;100503.47;5116876;28;9600;-60
2023/05/20 05:13:18;;;;;;;;;6.25;5.75;;;;;12.29;54.81;100506.03;5116496;28;8950;-60
2023/05/20 05:15:46;;;;;;;;;5.00;5.00;;;;;12.28;55.08;100508.81;5116561;28;8835;-59
2023/05/20 05:18:17;;;;;;;;;4.50;4.50;;;;;12.25;54.99;100515.25;5116763;28;9536;-60
2023/05/20 05:20:45;;;;;;;;;6.25;6.25;;;;;12.21;55.54;100512.94;5116645;28;8828;-59
2023/05/20 05:23:12;;;;;;;;;4.00;4.00;;;;;12.21;55.66;100512.94;5116587;28;8840;-58
2023/05/20 05:25:40;;;;;;;;;7.50;6.25;;;;;12.22;55.71;100514.63;5116580;28;8822;-59
2023/05/20 05:28:08;;;;;;;;;8.50;6.75;;;;;12.24;55.38;100510.03;5116296;28;8840;-60
2023/05/20 05:30:36;;;;;;;;;8.00;7.00;;;;;12.28;55.38;100503.47;5116189;28;8824;-59
2023/05/20 05:33:04;;;;;;;;;6.00;6.00;;;;;12.34;55.45;100503.88;5116493;28;8828;-59
2023/05/20 05:35:32;;;;;;;;;4.50;4.50;;;;;12.43;55.16;100502.28;5116632;28;8855;-59
2023/05/20 05:38:00;;;;;;;;;8.50;6.75;;;;;12.54;54.91;100499.63;5116405;28;8860;-58
2023/05/20 05:40:28;;;;;;;;;6.00;6.00;;;;;12.64;54.48;100500.59;5115165;28;8836;-59
2023/05/20 05:42:56;;;;;;;;;7.00;6.25;;;;;12.71;54.67;100502.69;5115426;28;8951;-60
2023/05/20 05:45:24;;;;;;;;;6.50;6.00;;;;;12.79;54.38;100505.59;5115502;28;9553;-58
2023/05/20 05:47:51;;;;;;;;;7.00;7.00;;;;;12.87;54.41;100494.28;5115198;28;8836;-57
2023/05/20 05:50:19;;;;;;;;;7.00;7.00;;;;;12.91;54.96;100501.09;5115777;28;8836;-58
2023/05/20 05:52:48;;;;;;;;;11.50;9.25;;;;;12.98;54.63;100495.16;5115539;28;8832;-58
2023/05/20 05:55:17;;;;;;;;;9.50;9.00;;;;;13.05;54.53;100501.69;5115644;28;8820;-57
2023/05/20 05:57:44;;;;;;;;;9.00;9.00;;;;;13.12;54.46;100491.34;5115603;28;8925;-58
2023/05/20 06:00:12;;;;;;;;;7.00;7.00;;;;;13.21;54.54;100498.66;5114708;28;8856;-57
2023/05/20 06:02:39;;;;;;;;;7.00;7.00;;;;;13.29;54.48;100498.88;5114860;28;8836;-57
2023/05/20 06:05:07;;;;;;;;;9.00;9.00;;;;;13.36;54.33;100490.19;5115273;28;8851;-58
2023/05/20 06:07:35;;;;;;;;;7.50;7.50;;;;;13.45;54.78;100491.28;5115396;28;8846;-58
2023/05/20 06:10:03;;;;;;;;;7.00;6.75;;;;;13.54;54.28;100493.19;5118835;28;8857;-58
2023/05/20 06:12:31;;;;;;;;;5.50;5.50;;;;;13.62;54.19;100496.94;5119100;28;8855;-59
2023/05/20 06:14:59;;;;;;;;;7.00;7.00;;;;;13.69;54.33;100484.75;5119628;28;8837;-58
2023/05/20 06:17:27;;;;;;;;;7.25;4.00;;;;;13.74;53.92;100485.19;5119124;28;8862;-58
2023/05/20 06:19:55;;;;;;;;;9.50;9.00;;;;;13.79;54.58;100485.66;5119531;28;8860;-58
2023/05/20 06:22:22;;;;;;;;;9.00;9.00;;;;;13.83;54.52;100491.59;5119264;28;8862;-58
2023/05/20 06:24:50;;;;;;;;;3.75;3.50;;;;;13.88;54.47;100484.03;5119207;28;8827;-59
2023/05/20 06:27:18;;;;;;;;;9.00;9.00;;;;;13.91;54.29;100479.28;5119309;28;8936;-59
2023/05/20 06:29:45;;;;;;;;;8.00;8.00;;;;;13.94;54.09;100476.34;5119468;28;8877;-58
2023/05/20 06:32:13;;;;;;;;;7.00;6.50;;;;;13.99;54.28;100476.81;5119651;28;9616;-58
2023/05/20 06:34:41;;;;;;;;;8.00;7.00;;;;;14.05;54.91;100476.25;5119674;28;8981;-58
2023/05/20 06:37:10;;;;;;;;;6.75;6.75;;;;;14.09;54.62;100471.47;5119234;28;8933;-59
2023/05/20 06:39:37;;;;;;;;;6.50;6.50;;;;;14.12;54.62;100463.22;5119036;28;8836;-60
2023/05/20 06:42:05;;;;;;;;;8.00;8.00;;;;;14.16;54.79;100469.97;5119305;28;8862;-60
2023/05/20 06:44:33;;;;;;;;;9.00;9.00;;;;;14.18;55.25;100468.06;5119540;28;8858;-59
2023/05/20 06:47:01;;;;;;;;;9.25;9.25;;;;;14.22;55.35;100461.47;5119346;28;8824;-58
2023/05/20 06:49:28;;;;;;;;;9.00;7.00;;;;;14.26;54.93;100465.59;5119087;28;8920;-59
2023/05/20 06:51:56;;;;;;;;;8.00;8.00;;;;;14.28;55.04;100468.97;5110945;28;8813;-58
2023/05/20 06:54:24;;;;;;;;;9.00;8.50;;;;;14.29;55.41;100471.53;5119133;28;8809;-60
2023/05/20 06:56:52;;;;;;;;;9.75;9.00;;;;;14.36;55.21;100463.78;5118614;28;9428;-61
2023/05/20 06:59:20;;;;;;;;;11.50;10.50;;;;;14.42;54.86;100458.75;5118912;28;8820;-61
2023/05/20 07:01:47;;;;;;;;;7.00;6.00;;;;;14.52;54.91;100459.66;5118758;28;8926;-61
2023/05/20 07:04:15;;;;;;;;;10.00;9.75;;;;;14.60;55.04;100456.28;5118967;28;8900;-61
2023/05/20 07:06:43;;;;;;;;;10.50;10.00;;;;;14.65;55.05;100460.25;5118603;28;8825;-60
2023/05/20 07:09:11;;;;;;;;;5.00;4.00;;;;;14.75;54.36;100452.25;5118753;28;8814;-58
2023/05/20 07:11:39;;;;;;;;;9.75;9.00;;;;;14.86;54.27;100449.47;5118182;28;8818;-58
2023/05/20 07:14:07;;;;;;;;;12.00;11.50;;;;;14.91;54.89;100452.59;5118155;28;8847;-59
2023/05/20 07:16:35;;;;;;;;;7.50;7.50;;;;;14.97;54.47;100447.53;5117925;28;8992;-60
2023/05/20 07:19:03;;;;;;;;;9.50;9.50;;;;;15.00;54.80;100449.06;5116960;28;8882;-60
2023/05/20 07:21:32;;;;;;;;;9.00;6.00;;;;;15.03;54.94;100452.34;5116778;28;8851;-58
2023/05/20 07:24:00;;;;;;;;;6.25;5.75;;;;;15.06;54.90;100451.22;5117556;28;8844;-59
2023/05/20 07:26:29;;;;;;;;;12.00;12.00;;;;;15.11;54.48;100443.59;5118131;28;8844;-58
2023/05/20 07:28:57;;;;;;;;;9.50;9.50;;;;;15.14;54.55;100437.94;5117992;28;8848;-60
2023/05/20 07:31:25;;;;;;;;;10.50;10.50;;;;;15.12;55.12;100439.94;5118004;28;8825;-58
2023/05/20 07:33:53;;;;;;;;;10.00;9.00;;;;;15.07;54.99;100443.03;5118063;28;8926;-60
2023/05/20 07:36:21;;;;;;;;;9.25;9.00;;;;;15.05;54.78;100434.28;5116876;28;8825;-60
2023/05/20 07:38:49;;;;;;;;;12.25;12.00;;;;;15.03;55.04;100430.03;5116434;28;8903;-63
2023/05/20 07:41:29;;;;;;;;;6.00;4.00;;;;;15.04;55.26;100434.41;5116617;28;8979;-63
2023/05/20 07:43:57;;;;;;;;;9.00;9.00;;;;;15.08;55.29;100427.78;5117637;28;8971;-63
2023/05/20 07:46:25;;;;;;;;;12.00;10.75;;;;;15.09;55.60;100424.13;5118193;28;8825;-61
2023/05/20 07:48:53;;;;;;;;;9.75;9.50;;;;;15.17;55.05;100421.59;5117772;28;8851;-63
2023/05/20 07:51:20;;;;;;;;;31.00;30.00;;;;;15.21;55.76;100414.94;5117412;28;8818;-63
2023/05/20 07:53:48;;;;;;;;;14.00;14.00;;;;;15.26;55.40;100412.69;5117066;28;8829;-60
2023/05/20 07:56:16;;;;;;;;;8.50;8.00;;;;;15.30;55.00;100416.78;5117343;28;8995;-60
2023/05/20 07:58:43;;;;;;;;;12.25;12.25;;;;;15.40;55.29;100423.06;5117409;28;8851;-60
2023/05/20 08:01:11;;;;;;;;;13.00;11.00;;;;;15.40;55.45;100423.88;5116813;28;8848;-58
2023/05/20 08:03:39;;;;;;;;;9.50;9.00;;;;;15.41;55.76;100425.59;5116554;28;8837;-58
2023/05/20 08:06:07;;;;;;;;;12.75;12.00;;;;;15.43;55.80;100428.13;5116541;28;8841;-57
2023/05/20 08:08:35;;;;;;;;;8.00;8.00;;;;;15.46;55.65;100420.66;5115701;28;8829;-58
2023/05/20 08:11:03;;;;;;;;;15.25;11.00;;;;;15.48;55.81;100423.19;5115522;28;8939;-58
2023/05/20 08:13:31;;;;;;;;;9.25;9.00;;;;;15.51;55.57;100421.09;5115186;28;8918;-58
2023/05/20 08:15:59;;;;;;;;;9.50;9.50;;;;;15.52;55.31;100421.91;5115382;28;8939;-59
2023/05/20 08:18:27;;;;;;;;;16.50;13.25;;;;;15.49;55.83;100422.22;5116007;28;9661;-57
2023/05/20 08:20:55;;;;;;;;;9.75;9.75;;;;;15.49;56.22;100423.03;5115436;28;8930;-57
2023/05/20 08:23:22;;;;;;;;;9.00;8.50;;;;;15.51;56.03;100415.72;5114798;28;8903;-58
2023/05/20 08:25:50;;;;;;;;;14.00;12.50;;;;;15.54;56.12;100419.97;5114513;28;8826;-58
2023/05/20 08:28:18;;;;;;;;;10.50;10.00;;;;;15.53;55.98;100424.47;5113690;28;8847;-58
2023/05/20 08:30:47;;;;;;;;;12.75;12.00;;;;;15.54;56.24;100428.00;5113781;28;8844;-59
2023/05/20 08:33:15;;;;;;;;;15.50;15.00;;;;;15.53;56.19;100429.84;5115084;28;8825;-60
2023/05/20 08:35:43;;;;;;;;;12.00;12.00;;;;;15.56;56.36;100434.06;5115410;28;8988;-60
2023/05/20 08:38:10;;;;;;;;;13.50;12.25;;;;;15.60;55.67;100435.47;5115293;28;8911;-59
2023/05/20 08:40:38;;;;;;;;;12.00;9.00;;;;;15.65;55.79;100427.84;5115969;28;8974;-60
2023/05/20 08:43:06;;;;;;;;;14.00;12.25;;;;;15.67;55.87;100432.09;5116396;28;8832;-59
2023/05/20 08:45:34;;;;;;;;;14.00;14.00;;;;;15.73;55.83;100436.03;5116141;28;8959;-60
2023/05/20 08:48:03;;;;;;;;;8.00;8.00;;;;;15.77;55.95;100426.72;5116050;28;8829;-59
2023/05/20 08:50:31;;;;;;;;;13.50;12.00;;;;;15.81;55.74;100433.50;5115563;28;8969;-60
2023/05/20 08:52:59;;;;;;;;;14.50;14.00;;;;;15.84;55.74;100428.69;5116040;28;8818;-58
2023/05/20 08:55:26;;;;;;;;;8.75;8.00;;;;;15.84;55.85;100433.22;5115848;28;8876;-60
2023/05/20 08:57:54;;;;;;;;;13.00;13.00;;;;;15.83;56.06;100426.13;5115563;28;9790;-60
2023/05/20 09:00:26;;;;;;;;;15.25;14.50;;;;;15.87;55.88;100432.91;5115395;28;8841;-58
2023/05/20 09:02:53;;;;;;;;;15.75;14.50;;;;;15.89;55.92;100425.56;5115337;28;8959;-60
2023/05/20 09:05:21;;;;;;;;;12.75;12.25;;;;;15.92;56.29;100417.22;5116180;28;8833;-59
2023/05/20 09:07:49;;;;;;;;;15.00;13.00;;;;;15.92;56.56;100419.91;5115524;28;8841;-60
2023/05/20 09:10:17;;;;;;;;;13.00;12.25;;;;;15.94;56.45;100420.63;5116011;28;8918;-59
2023/05/20 09:12:44;;;;;;;;;9.00;7.00;;;;;15.98;55.89;100419.31;5116005;28;8832;-58
2023/05/20 09:15:12;;;;;;;;;12.00;12.00;;;;;16.05;55.88;100413.25;5115892;28;8850;-59
2023/05/20 09:17:40;;;;;;;;;11.75;11.00;;;;;16.10;55.91;100407.41;5115229;28;8837;-57
2023/05/20 09:20:08;;;;;;;;;15.00;13.00;;;;;16.15;56.35;100413.22;5113696;28;8845;-57
2023/05/20 09:22:36;;;;;;;;;10.75;10.25;;;;;16.15;55.99;100421.28;5114247;28;8841;-58
2023/05/20 09:25:04;;;;;;;;;12.00;10.50;;;;;16.16;55.89;100417.59;5114217;28;8829;-58
2023/05/20 09:27:32;;;;;;;;;15.75;12.75;;;;;16.17;56.36;100418.28;5113943;28;8845;-57
2023/05/20 09:30:00;;;;;;;;;13.50;12.25;;;;;16.17;56.60;100415.59;5114032;28;8837;-59
2023/05/20 09:32:28;;;;;;;;;14.50;13.00;;;;;16.20;56.43;100417.16;5113393;28;8849;-57
2023/05/20 09:34:57;;;;;;;;;15.50;13.00;;;;;16.23;56.90;100413.34;5113772;28;8938;-58
2023/05/20 09:37:25;;;;;;;;;15.75;14.50;;;;;16.25;56.10;100413.03;5114341;28;8825;-58
2023/05/20 09:39:55;;;;;;;;;12.50;11.50;;;;;16.31;56.25;100412.44;5113851;28;8960;-58
2023/05/20 09:42:25;;;;;;;;;13.50;13.00;;;;;16.35;56.22;100413.84;5114228;28;9491;-59
2023/05/20 09:44:53;;;;;;;;;14.75;14.00;;;;;16.39;55.77;100417.09;5114550;28;8907;-58
2023/05/20 09:47:21;;;;;;;;;6.50;6.00;;;;;16.42;55.94;100416.84;5114822;28;8829;-59
2023/05/20 09:49:48;;;;;;;;;13.00;12.75;;;;;16.44;56.38;100415.69;5114487;28;8837;-58
2023/05/20 09:52:17;;;;;;;;;13.00;12.00;;;;;16.47;56.52;100415.38;5114206;28;8841;-58
2023/05/20 09:54:47;;;;;;;;;14.50;13.50;;;;;16.54;56.04;100404.88;5115052;28;8837;-57
2023/05/20 09:57:15;;;;;;;;;13.50;12.50;;;;;16.64;55.66;100403.84;5113561;28;8825;-58
2023/05/20 09:59:43;;;;;;;;;13.25;12.75;;;;;16.72;55.62;100390.50;5114154;28;8907;-58
2023/05/20 10:02:11;;;;;;;;;13.50;13.00;;;;;16.82;55.67;100394.00;5113822;28;8841;-60
2023/05/20 10:04:39;;;;;;;;;10.50;10.00;;;;;16.93;56.05;100391.06;5114413;28;9551;-62
2023/05/20 10:07:07;;;;;;;;;15.75;14.50;;;;;17.09;55.35;100399.31;5114258;28;8910;-60
2023/05/20 10:09:35;;;;;;;;;16.75;15.50;;;;;17.26;55.44;100392.28;5113787;28;8814;-61
2023/05/20 10:12:04;;;;;;;;;15.50;13.00;;;;;17.43;54.90;100392.31;5113570;28;8829;-57
2023/05/20 10:14:32;;;;;;;;;12.50;11.75;;;;;17.57;54.91;100383.69;5112969;28;8979;-58
2023/05/20 10:16:59;;;;;;;;;14.00;13.50;;;;;17.69;54.71;100377.03;5113985;28;8837;-59
2023/05/20 10:19:27;;;;;;;;;9.25;7.75;;;;;17.79;54.63;100376.94;5115001;28;8833;-60
2023/05/20 10:21:56;;;;;;;;;12.25;11.50;;;;;17.90;54.52;100377.53;5114400;28;8845;-59
2023/05/20 10:24:24;;;;;;;;;7.50;7.25;;;;;17.98;54.09;100376.75;5115138;28;8814;-58
2023/05/20 10:26:52;;;;;;;;;13.75;13.50;;;;;18.08;54.02;100362.13;5114603;28;8810;-59
2023/05/20 10:29:21;;;;;;;;;13.00;12.50;;;;;18.26;53.68;100368.34;5115428;28;9617;-60
2023/05/20 10:31:49;;;;;;;;;16.00;13.50;;;;;18.46;53.61;100356.34;5115017;28;8861;-59
2023/05/20 10:34:17;;;;;;;;;8.75;8.75;;;;;18.61;53.31;100353.84;5115320;28;8872;-61
2023/05/20 10:36:46;;;;;;;;;15.20;14.20;;;;;18.74;53.08;100359.66;5115184;28;8821;-59
2023/05/20 10:39:14;;;;;;;;;15.80;14.20;;;;;18.94;52.60;100353.78;5115004;28;9507;-60
2023/05/20 10:41:42;;;;;;;;;16.50;13.50;;;;;19.15;52.76;100348.78;5114295;28;8821;-59
2023/05/20 10:44:10;;;;;;;;;16.20;16.00;;;;;19.31;52.42;100351.53;5114483;28;8846;-59
2023/05/20 10:46:38;;;;;;;;;11.60;11.00;;;;;19.51;51.83;100346.63;5114483;28;8853;-59
2023/05/20 10:49:26;;;;;;;;;12.60;12.00;;;;;19.77;51.42;100342.75;5113843;28;9499;-59
2023/05/20 10:51:54;;;;;;;;;14.40;12.00;;;;;19.99;51.00;100342.03;5113732;28;8832;-61
2023/05/20 10:54:22;;;;;;;;;15.20;13.40;;;;;20.27;50.35;100331.69;5114851;28;8967;-61
2023/05/20 10:56:51;;;;;;;;;13.00;12.20;;;;;20.50;50.11;100338.88;5117536;28;8887;-61
2023/05/20 10:59:20;;;;;;;;;14.00;13.00;;;;;20.68;49.78;100331.34;5117926;28;8821;-60
2023/05/20 11:01:48;;;;;;;;;13.60;12.60;;;;;20.85;49.73;100324.81;5117175;28;8821;-59
2023/05/20 11:04:15;;;;;;;;;13.60;12.20;;;;;21.01;49.36;100330.16;5116794;28;8857;-59
2023/05/20 11:06:44;;;;;;;;;13.40;10.60;;;;;21.03;49.61;100325.41;5116757;28;8822;-59
2023/05/20 11:09:12;;;;;;;;;17.00;15.60;;;;;21.06;49.77;100323.19;5117435;28;8822;-61
2023/05/20 11:11:40;;;;;;;;;12.40;11.40;;;;;21.03;49.72;100326.25;5117590;28;9493;-61
2023/05/20 11:14:08;;;;;;;;;15.80;15.20;;;;;20.87;50.09;100317.41;5117028;28;8960;-61
2023/05/20 11:16:35;;;;;;;;;12.20;11.60;;;;;20.73;50.14;100318.13;5116904;28;8983;-61
2023/05/20 11:19:04;;;;;;;;;15.60;14.20;;;;;20.52;50.64;100317.03;5116797;28;8826;-61
2023/05/20 11:21:33;;;;;;;;;14.40;14.00;;;;;20.37;50.83;100314.22;5116077;28;8829;-61
2023/05/20 11:24:01;;;;;;;;;12.80;11.40;;;;;20.37;50.79;100311.53;5116106;28;8838;-60
2023/05/20 11:26:28;;;;;;;;;10.60;10.20;;;;;20.48;51.14;100307.59;5115838;28;8959;-60
2023/05/20 11:28:56;;;;;;;;;11.60;10.80;;;;;20.60;50.31;100309.72;5116295;28;8829;-60
2023/05/20 11:31:27;;;;;;;;;13.00;12.80;;;;;20.59;50.74;100305.34;5115645;28;8825;-60